createdAt,value
2022-10-01T00:01:14.248Z,3.90
2022-10-01T00:03:42.247Z,5.73
2022-10-01T00:06:18.236Z,4.53
2022-10-01T00:08:48.721Z,5.33
2022-10-01T00:11:18.675Z,6.47
2022-10-01T00:13:46.223Z,5.83
2022-10-01T00:16:16.532Z,6.23
2022-10-01T00:18:45.880Z,5.57
2022-10-01T00:21:18.190Z,5.47
2022-10-01T00:23:46.166Z,5.17
2022-10-01T00:26:18.824Z,5.20
2022-10-01T00:28:47.493Z,6.30
2022-10-01T00:31:15.888Z,5.10
2022-10-01T00:33:42.873Z,5.87
2022-10-01T00:36:10.953Z,5.87
2022-10-01T00:38:40.240Z,5.93
2022-10-01T00:41:08.528Z,5.33
2022-10-01T00:43:40.102Z,5.57
2022-10-01T00:46:14.455Z,5.50
2022-10-01T00:48:58.834Z,4.80
2022-10-01T00:51:29.612Z,5.37
2022-10-01T00:54:03.051Z,6.00
2022-10-01T00:56:30.876Z,5.50
2022-10-01T00:58:58.953Z,5.90
2022-10-01T01:01:26.676Z,5.20
2022-10-01T01:03:53.573Z,5.40
2022-10-01T01:06:20.759Z,5.20
2022-10-01T01:08:53.508Z,4.67
2022-10-01T01:11:48.205Z,4.93
2022-10-01T01:14:22.812Z,6.20
2022-10-01T01:16:55.445Z,6.83
2022-10-01T01:19:37.922Z,7.60
2022-10-01T01:22:07.604Z,6.27
2022-10-01T01:24:46.580Z,7.57
2022-10-01T01:27:23.777Z,9.43
2022-10-01T01:29:55.397Z,10.13
2022-10-01T01:32:42.794Z,9.57
2022-10-01T01:35:11.526Z,9.10
2022-10-01T01:37:45.581Z,10.57
2022-10-01T01:40:14.612Z,10.87
2022-10-01T01:42:44.043Z,11.60
2022-10-01T01:45:17.073Z,10.60
2022-10-01T01:47:44.732Z,12.60
2022-10-01T01:50:14.448Z,10.80
2022-10-01T01:52:41.334Z,13.83
2022-10-01T01:55:09.751Z,9.10
2022-10-01T01:57:42.618Z,10.63
2022-10-01T02:00:11.945Z,9.57
2022-10-01T02:02:41.424Z,7.47
2022-10-01T02:05:15.962Z,6.53
2022-10-01T02:08:00.003Z,6.67
2022-10-01T02:10:55.291Z,6.77
2022-10-01T02:13:40.187Z,9.17
2022-10-01T02:16:18.849Z,7.30
2022-10-01T02:19:07.035Z,6.80
2022-10-01T02:21:39.703Z,6.93
2022-10-01T02:24:31.163Z,7.23
2022-10-01T02:27:00.908Z,7.37
2022-10-01T02:29:29.480Z,6.50
2022-10-01T02:31:57.263Z,8.40
2022-10-01T02:34:29.240Z,7.77
2022-10-01T02:36:58.924Z,7.83
2022-10-01T02:39:29.474Z,7.07
2022-10-01T02:41:59.049Z,7.37
2022-10-01T02:44:31.282Z,7.20
2022-10-01T02:47:18.253Z,9.73
2022-10-01T02:49:45.210Z,7.63
2022-10-01T02:52:41.573Z,8.83
2022-10-01T02:55:17.348Z,8.47
2022-10-01T02:57:44.355Z,8.70
2022-10-01T03:00:15.347Z,7.60
2022-10-01T03:02:42.556Z,8.43
2022-10-01T03:05:09.593Z,8.90
2022-10-01T03:07:36.447Z,10.13
2022-10-01T03:10:04.758Z,10.80
2022-10-01T03:12:32.110Z,10.37
2022-10-01T03:14:59.135Z,8.60
2022-10-01T03:17:25.966Z,8.73
2022-10-01T03:19:52.844Z,8.83
2022-10-01T03:22:22.789Z,8.07
2022-10-01T03:24:50.993Z,8.73
2022-10-01T03:27:18.301Z,7.27
2022-10-01T03:29:45.433Z,8.03
2022-10-01T03:32:12.760Z,12.93
2022-10-01T03:34:39.641Z,8.13
2022-10-01T03:37:07.288Z,7.60
2022-10-01T03:39:34.406Z,7.53
2022-10-01T03:42:01.350Z,11.03
2022-10-01T03:44:28.462Z,8.10
2022-10-01T03:46:55.433Z,13.53
2022-10-01T03:49:22.284Z,10.27
2022-10-01T03:51:49.423Z,9.07
2022-10-01T03:54:16.543Z,8.40
2022-10-01T03:56:43.380Z,8.07
2022-10-01T03:59:11.058Z,10.17
2022-10-01T04:01:39.306Z,9.40
2022-10-01T04:04:06.959Z,9.27
2022-10-01T04:06:33.805Z,10.43
2022-10-01T04:09:00.712Z,11.13
2022-10-01T04:11:27.904Z,9.40
2022-10-01T04:13:55.244Z,14.13
2022-10-01T04:16:22.100Z,17.07
2022-10-01T04:18:48.985Z,21.30
2022-10-01T04:21:16.023Z,24.53
2022-10-01T04:23:42.915Z,18.50
2022-10-01T04:26:09.754Z,19.90
2022-10-01T04:28:36.686Z,14.83
2022-10-01T04:31:22.971Z,16.53
2022-10-01T04:33:50.013Z,15.03
2022-10-01T04:36:17.330Z,11.00
2022-10-01T04:38:44.411Z,17.97
2022-10-01T04:41:11.276Z,12.83
2022-10-01T04:43:38.062Z,11.30
2022-10-01T04:46:04.922Z,14.00
2022-10-01T04:48:31.771Z,16.33
2022-10-01T04:50:58.623Z,14.57
2022-10-01T04:53:25.382Z,18.10
2022-10-01T04:55:52.223Z,16.77
2022-10-01T04:58:19.028Z,22.03
2022-10-01T05:00:45.980Z,16.67
2022-10-01T05:03:13.007Z,18.33
2022-10-01T05:05:40.801Z,16.00
2022-10-01T05:08:07.865Z,22.03
2022-10-01T05:10:35.463Z,29.03
2022-10-01T05:13:02.425Z,25.97
2022-10-01T05:15:30.349Z,22.63
2022-10-01T05:17:57.645Z,25.10
2022-10-01T05:20:27.406Z,23.93
2022-10-01T05:22:56.366Z,22.90
2022-10-01T05:25:23.398Z,23.27
2022-10-01T05:27:50.439Z,21.87
2022-10-01T05:30:22.185Z,19.93
2022-10-01T05:33:00.568Z,19.13
2022-10-01T05:35:27.773Z,18.77
2022-10-01T05:38:02.671Z,18.93
2022-10-01T05:40:30.209Z,21.03
2022-10-01T05:42:58.448Z,19.23
2022-10-01T05:45:27.670Z,19.53
2022-10-01T05:48:02.953Z,18.63
2022-10-01T05:50:31.627Z,19.37
2022-10-01T05:52:59.792Z,18.40
2022-10-01T05:55:27.342Z,18.33
2022-10-01T05:58:13.634Z,20.30
2022-10-01T06:00:42.390Z,20.03
2022-10-01T06:03:12.748Z,21.57
2022-10-01T06:05:39.818Z,21.40
2022-10-01T06:08:09.565Z,21.07
2022-10-01T06:10:37.712Z,20.17
2022-10-01T06:13:07.697Z,17.70
2022-10-01T06:15:37.881Z,18.27
2022-10-01T06:18:06.221Z,17.13
2022-10-01T06:20:33.350Z,15.83
2022-10-01T06:23:00.219Z,13.23
2022-10-01T06:25:30.716Z,11.43
2022-10-01T06:27:59.722Z,11.93
2022-10-01T06:30:31.918Z,13.43
2022-10-01T06:33:09.708Z,10.80
2022-10-01T06:35:44.398Z,12.30
2022-10-01T06:38:11.800Z,11.90
2022-10-01T06:40:39.402Z,10.83
2022-10-01T06:43:08.394Z,10.77
2022-10-01T06:45:41.132Z,10.03
2022-10-01T06:48:10.137Z,10.03
2022-10-01T06:50:36.973Z,10.60
2022-10-01T06:53:03.805Z,9.47
2022-10-01T06:55:33.030Z,8.83
2022-10-01T06:58:05.599Z,9.20
2022-10-01T07:00:34.794Z,8.80
2022-10-01T07:03:03.850Z,9.23
2022-10-01T07:05:30.932Z,8.60
2022-10-01T07:07:57.685Z,9.53
2022-10-01T07:10:25.461Z,10.17
2022-10-01T07:12:52.788Z,8.57
2022-10-01T07:15:25.061Z,8.53
2022-10-01T07:17:52.710Z,8.97
2022-10-01T07:20:21.467Z,8.37
2022-10-01T07:22:49.611Z,8.43
2022-10-01T07:25:16.985Z,7.83
2022-10-01T07:27:43.956Z,7.57
2022-10-01T07:30:11.326Z,8.13
2022-10-01T07:32:38.137Z,7.87
2022-10-01T07:35:05.949Z,7.63
2022-10-01T07:37:32.793Z,7.60
2022-10-01T07:40:02.086Z,8.27
2022-10-01T07:42:32.143Z,7.43
2022-10-01T07:44:58.965Z,7.30
2022-10-01T07:47:25.819Z,7.07
2022-10-01T07:49:52.754Z,7.43
2022-10-01T07:52:19.561Z,7.33
2022-10-01T07:54:48.035Z,7.03
2022-10-01T07:57:15.351Z,7.97
2022-10-01T07:59:42.826Z,7.20
2022-10-01T08:02:17.713Z,6.67
2022-10-01T08:05:03.174Z,6.43
2022-10-01T08:07:33.114Z,6.80
2022-10-01T08:09:59.953Z,7.73
2022-10-01T08:12:28.827Z,7.03
2022-10-01T08:14:55.929Z,7.00
2022-10-01T08:17:27.289Z,6.60
2022-10-01T08:19:56.130Z,7.43
2022-10-01T08:22:22.944Z,7.17
2022-10-01T08:24:49.708Z,7.23
2022-10-01T08:27:16.520Z,7.77
2022-10-01T08:29:43.597Z,7.33
2022-10-01T08:32:10.973Z,8.93
2022-10-01T08:34:37.852Z,7.07
2022-10-01T08:37:04.670Z,6.67
2022-10-01T08:39:31.571Z,7.37
2022-10-01T08:42:24.071Z,6.70
2022-10-01T08:44:52.147Z,7.60
2022-10-01T08:47:39.308Z,7.03
2022-10-01T08:50:41.077Z,6.63
2022-10-01T08:53:16.477Z,7.97
2022-10-01T08:55:44.246Z,6.60
2022-10-01T08:58:16.504Z,7.00
2022-10-01T09:00:46.595Z,6.90
2022-10-01T09:03:15.182Z,7.40
2022-10-01T09:06:12.745Z,6.33
2022-10-01T09:09:07.052Z,6.10
2022-10-01T09:12:09.326Z,7.03
2022-10-01T09:14:40.936Z,6.50
2022-10-01T09:17:30.310Z,6.10
2022-10-01T09:20:22.922Z,8.60
2022-10-01T09:23:26.144Z,6.80
2022-10-01T09:25:53.292Z,7.27
2022-10-01T09:28:23.635Z,6.90
2022-10-01T09:30:59.242Z,5.77
2022-10-01T09:33:32.033Z,5.57
2022-10-01T09:36:07.450Z,6.43
2022-10-01T09:38:48.248Z,5.37
2022-10-01T09:41:15.079Z,5.30
2022-10-01T09:43:44.587Z,4.67
2022-10-01T09:46:17.160Z,4.73
2022-10-01T09:49:01.937Z,4.90
2022-10-01T09:51:40.869Z,4.30
2022-10-01T09:54:31.514Z,5.37
2022-10-01T09:57:33.730Z,4.53
2022-10-01T10:00:11.961Z,5.50
2022-10-01T10:02:48.523Z,4.20
2022-10-01T10:05:17.333Z,4.70
2022-10-01T10:07:55.725Z,4.50
2022-10-01T10:10:35.634Z,4.90
2022-10-01T10:13:11.319Z,4.43
2022-10-01T10:15:43.776Z,5.63
2022-10-01T10:18:23.650Z,5.13
2022-10-01T10:20:53.943Z,4.00
2022-10-01T10:23:22.836Z,3.97
2022-10-01T10:26:00.843Z,5.37
2022-10-01T10:28:29.992Z,4.53
2022-10-01T10:30:57.729Z,4.40
2022-10-01T10:33:26.371Z,4.63
2022-10-01T10:36:03.142Z,10.93
2022-10-01T10:38:34.236Z,4.00
2022-10-01T10:41:03.747Z,3.80
2022-10-01T10:43:36.609Z,3.67
2022-10-01T10:46:04.303Z,5.60
2022-10-01T10:48:37.269Z,4.60
2022-10-01T10:51:05.756Z,4.17
2022-10-01T10:53:46.655Z,3.80
2022-10-01T10:56:23.145Z,3.67
2022-10-01T10:58:51.666Z,3.80
2022-10-01T11:01:28.554Z,4.07
2022-10-01T11:03:58.290Z,3.77
2022-10-01T11:06:25.667Z,5.30
2022-10-01T11:09:10.569Z,4.40
2022-10-01T11:11:49.721Z,3.43
2022-10-01T11:14:32.326Z,3.53
2022-10-01T11:17:28.388Z,3.90
2022-10-01T11:20:07.703Z,3.63
2022-10-01T11:23:22.359Z,3.63
2022-10-01T11:26:04.899Z,5.30
2022-10-01T11:29:03.696Z,3.83
2022-10-01T11:31:50.353Z,3.97
2022-10-01T11:35:03.957Z,3.50
2022-10-01T11:37:41.664Z,3.13
2022-10-01T11:40:22.956Z,3.30
2022-10-01T11:42:53.340Z,3.10
2022-10-01T11:45:29.406Z,4.20
2022-10-01T11:48:04.275Z,3.67
2022-10-01T11:50:39.335Z,3.07
2022-10-01T11:53:21.548Z,3.17
2022-10-01T11:56:24.208Z,3.13
2022-10-01T11:59:12.177Z,4.13
2022-10-01T12:01:58.298Z,3.50
2022-10-01T12:04:48.258Z,3.77
2022-10-01T12:07:44.613Z,2.93
2022-10-01T12:10:40.225Z,3.40
2022-10-01T12:13:07.612Z,4.33
2022-10-01T12:15:51.766Z,3.13
2022-10-01T12:18:42.344Z,4.10
2022-10-01T12:21:20.748Z,4.43
2022-10-01T12:24:02.159Z,3.43
2022-10-01T12:26:59.444Z,3.67
2022-10-01T12:29:57.235Z,3.27
2022-10-01T12:33:01.721Z,3.40
2022-10-01T12:36:00.747Z,3.67
2022-10-01T12:38:55.568Z,4.20
2022-10-01T12:41:44.328Z,3.70
2022-10-01T12:44:33.612Z,3.60
2022-10-01T12:47:00.450Z,3.67
2022-10-01T12:49:37.915Z,4.57
2022-10-01T12:52:34.400Z,4.00
2022-10-01T12:55:22.766Z,4.53
2022-10-01T12:58:24.771Z,4.20
2022-10-01T13:01:03.083Z,3.50
2022-10-01T13:03:45.993Z,4.93
2022-10-01T13:06:20.921Z,4.20
2022-10-01T13:09:12.027Z,3.33
2022-10-01T13:11:58.150Z,3.40
2022-10-01T13:14:25.458Z,3.07
2022-10-01T13:16:55.052Z,3.57
2022-10-01T13:19:37.506Z,3.30
2022-10-01T13:22:23.415Z,3.40
2022-10-01T13:25:12.483Z,3.43
2022-10-01T13:27:51.760Z,3.90
2022-10-01T13:30:27.925Z,4.13
2022-10-01T13:33:00.858Z,4.60
2022-10-01T13:35:36.552Z,3.13
2022-10-01T13:38:29.075Z,4.53
2022-10-01T13:41:04.588Z,3.03
2022-10-01T13:43:34.305Z,4.97
2022-10-01T13:46:07.740Z,3.70
2022-10-01T13:48:36.812Z,3.50
2022-10-01T13:51:07.086Z,4.00
2022-10-01T13:53:41.869Z,5.00
2022-10-01T13:56:26.563Z,3.23
2022-10-01T13:58:53.452Z,4.57
2022-10-01T14:01:23.994Z,3.80
2022-10-01T14:04:06.612Z,3.17
2022-10-01T14:06:36.819Z,5.77
2022-10-01T14:09:11.144Z,3.50
2022-10-01T14:12:00.559Z,3.53
2022-10-01T14:14:59.593Z,3.97
2022-10-01T14:17:30.208Z,3.27
2022-10-01T14:19:58.005Z,3.30
2022-10-01T14:22:55.753Z,3.40
2022-10-01T14:26:03.950Z,3.23
2022-10-01T14:28:52.633Z,3.17
2022-10-01T14:31:33.016Z,3.67
2022-10-01T14:34:11.986Z,3.63
2022-10-01T14:36:45.179Z,3.20
2022-10-01T14:39:41.368Z,3.53
2022-10-01T14:42:17.007Z,4.47
2022-10-01T14:44:47.831Z,3.10
2022-10-01T14:47:21.642Z,2.80
2022-10-01T14:49:49.813Z,2.93
2022-10-01T14:52:24.167Z,3.23
2022-10-01T14:54:57.009Z,3.30
2022-10-01T14:57:36.023Z,3.50
2022-10-01T15:00:11.457Z,2.93
2022-10-01T15:02:46.955Z,2.80
2022-10-01T15:05:29.370Z,3.13
2022-10-01T15:07:56.314Z,3.80
2022-10-01T15:10:27.092Z,2.80
2022-10-01T15:12:55.556Z,2.60
2022-10-01T15:15:31.052Z,2.93
2022-10-01T15:17:58.130Z,3.07
2022-10-01T15:20:25.408Z,6.90
2022-10-01T15:22:59.006Z,2.97
2022-10-01T15:25:31.187Z,3.43
2022-10-01T15:27:58.133Z,3.10
2022-10-01T15:30:27.548Z,2.70
2022-10-01T15:32:54.957Z,3.30
2022-10-01T15:35:23.476Z,3.77
2022-10-01T15:37:52.056Z,2.60
2022-10-01T15:40:37.449Z,2.40
2022-10-01T15:43:26.702Z,2.47
2022-10-01T15:46:10.797Z,2.40
2022-10-01T15:48:38.257Z,2.27
2022-10-01T15:51:20.515Z,3.10
2022-10-01T15:53:47.567Z,3.30
2022-10-01T15:56:19.236Z,3.33
2022-10-01T15:58:55.151Z,2.57
2022-10-01T16:01:26.586Z,2.20
2022-10-01T16:04:13.597Z,2.10
2022-10-01T16:06:47.245Z,2.00
2022-10-01T16:09:28.676Z,2.97
2022-10-01T16:11:56.917Z,2.03
2022-10-01T16:14:40.650Z,2.20
2022-10-01T16:17:20.109Z,1.60
2022-10-01T16:19:56.894Z,1.93
2022-10-01T16:22:28.731Z,2.10
2022-10-01T16:25:01.605Z,1.60
2022-10-01T16:28:04.325Z,1.70
2022-10-01T16:30:33.911Z,1.90
2022-10-01T16:33:04.528Z,2.53
2022-10-01T16:35:35.686Z,1.70
2022-10-01T16:38:08.450Z,1.53
2022-10-01T16:40:40.909Z,1.90
2022-10-01T16:43:14.777Z,5.60
2022-10-01T16:45:42.778Z,4.87
2022-10-01T16:48:14.367Z,7.50
2022-10-01T16:50:42.187Z,6.50
2022-10-01T16:53:13.838Z,3.13
2022-10-01T16:55:41.066Z,2.37
2022-10-01T16:58:08.362Z,2.40
2022-10-01T17:00:37.314Z,5.80
2022-10-01T17:03:06.664Z,2.60
2022-10-01T17:05:35.770Z,2.77
2022-10-01T17:08:05.164Z,2.37
2022-10-01T17:10:36.373Z,2.70
2022-10-01T17:13:03.650Z,2.13
2022-10-01T17:15:31.070Z,2.50
2022-10-01T17:17:59.162Z,3.03
2022-10-01T17:20:28.808Z,2.50
2022-10-01T17:22:56.922Z,1.80
2022-10-01T17:25:26.229Z,1.80
2022-10-01T17:27:55.885Z,1.90
2022-10-01T17:30:22.901Z,1.80
2022-10-01T17:32:49.777Z,1.70
2022-10-01T17:35:16.793Z,1.40
2022-10-01T17:37:43.675Z,1.50
2022-10-01T17:40:10.978Z,2.00
2022-10-01T17:42:38.184Z,2.20
2022-10-01T17:45:08.094Z,2.00
2022-10-01T17:47:35.245Z,2.20
2022-10-01T17:50:03.012Z,1.87
2022-10-01T17:52:32.136Z,2.77
2022-10-01T17:54:59.027Z,1.90
2022-10-01T17:57:25.937Z,1.60
2022-10-01T17:59:52.853Z,1.90
2022-10-01T18:02:40.445Z,2.80
2022-10-01T18:05:09.437Z,2.30
2022-10-01T18:07:37.255Z,1.80
2022-10-01T18:10:11.038Z,2.20
2022-10-01T18:12:37.850Z,1.80
2022-10-01T18:15:05.147Z,1.90
2022-10-01T18:17:33.239Z,1.70
2022-10-01T18:20:00.281Z,1.30
2022-10-01T18:22:28.236Z,1.60
2022-10-01T18:24:55.270Z,2.13
2022-10-01T18:27:22.360Z,2.00
2022-10-01T18:29:49.391Z,2.50
2022-10-01T18:32:31.210Z,1.40
2022-10-01T18:35:02.553Z,2.17
2022-10-01T18:37:40.390Z,1.00
2022-10-01T18:40:16.169Z,1.00
2022-10-01T18:42:49.413Z,1.33
2022-10-01T18:45:53.175Z,1.90
2022-10-01T18:48:43.895Z,1.07
2022-10-01T18:51:22.679Z,1.00
2022-10-01T18:54:18.682Z,1.00
2022-10-01T18:57:22.937Z,1.00
2022-10-01T18:59:56.559Z,0.80
2022-10-01T19:02:36.968Z,1.60
2022-10-01T19:05:51.385Z,0.90
2022-10-01T19:09:02.367Z,0.80
2022-10-01T19:11:53.179Z,0.80
2022-10-01T19:15:00.622Z,1.20
2022-10-01T19:17:36.462Z,0.90
2022-10-01T19:20:26.352Z,0.70
2022-10-01T19:23:11.919Z,1.43
2022-10-01T19:26:04.878Z,0.80
2022-10-01T19:28:41.397Z,1.20
2022-10-01T19:31:20.789Z,1.20
2022-10-01T19:34:00.354Z,0.70
2022-10-01T19:36:37.424Z,0.90
2022-10-01T19:39:10.766Z,0.80
2022-10-01T19:41:44.419Z,0.73
2022-10-01T19:44:26.084Z,1.03
2022-10-01T19:46:58.609Z,1.27
2022-10-01T19:49:31.565Z,1.03
2022-10-01T19:52:02.091Z,1.47
2022-10-01T19:54:42.438Z,1.10
2022-10-01T19:57:13.356Z,1.97
2022-10-01T19:59:41.177Z,0.90
2022-10-01T20:02:24.193Z,0.90
2022-10-01T20:05:11.816Z,0.90
2022-10-01T20:07:47.615Z,0.83
2022-10-01T20:10:43.973Z,0.80
2022-10-01T20:13:32.515Z,0.73
2022-10-01T20:16:05.183Z,0.80
2022-10-01T20:18:35.090Z,0.90
2022-10-01T20:21:11.430Z,0.93
2022-10-01T20:24:08.552Z,1.43
2022-10-01T20:27:04.531Z,0.83
2022-10-01T20:29:49.692Z,1.90
2022-10-01T20:32:26.879Z,0.70
2022-10-01T20:35:02.745Z,0.60
2022-10-01T20:37:35.185Z,0.80
2022-10-01T20:40:25.223Z,1.47
2022-10-01T20:43:33.529Z,0.80
2022-10-01T20:46:15.165Z,0.80
2022-10-01T20:48:50.241Z,1.00
2022-10-01T20:52:00.012Z,1.20
2022-10-01T20:54:35.517Z,1.47
2022-10-01T20:57:05.641Z,1.20
2022-10-01T20:59:39.822Z,1.10
2022-10-01T21:02:22.980Z,2.03
2022-10-01T21:05:19.095Z,1.10
2022-10-01T21:07:59.479Z,1.30
2022-10-01T21:10:44.499Z,1.50
2022-10-01T21:13:27.444Z,1.80
2022-10-01T21:16:07.428Z,1.67
2022-10-01T21:18:40.102Z,1.40
2022-10-01T21:21:32.618Z,1.30
2022-10-01T21:24:17.148Z,1.47
2022-10-01T21:27:00.334Z,1.50
2022-10-01T21:29:49.344Z,1.50
2022-10-01T21:32:47.629Z,1.90
2022-10-01T21:35:39.297Z,1.90
2022-10-01T21:38:39.896Z,1.53
2022-10-01T21:41:06.692Z,1.33
2022-10-01T21:44:12.660Z,2.70
2022-10-01T21:46:54.637Z,3.43
2022-10-01T21:49:57.497Z,1.40
2022-10-01T21:52:43.765Z,1.00
2022-10-01T21:55:25.851Z,2.50
2022-10-01T21:58:14.240Z,1.80
2022-10-01T22:00:41.811Z,1.80
2022-10-01T22:03:47.278Z,1.73
2022-10-01T22:06:45.010Z,2.73
2022-10-01T22:09:31.707Z,11.27
2022-10-01T22:12:02.048Z,2.33
2022-10-01T22:14:30.198Z,2.20
2022-10-01T22:16:58.292Z,3.53
2022-10-01T22:19:34.336Z,1.57
2022-10-01T22:22:31.713Z,1.90
2022-10-01T22:25:00.748Z,4.27
2022-10-01T22:27:33.216Z,2.10
2022-10-01T22:30:10.747Z,1.73
2022-10-01T22:32:54.219Z,2.33
2022-10-01T22:35:28.880Z,1.73
2022-10-01T22:38:02.740Z,1.50
2022-10-01T22:40:36.011Z,1.87
2022-10-01T22:43:10.977Z,1.33
2022-10-01T22:46:09.142Z,1.77
2022-10-01T22:49:14.710Z,2.47
2022-10-01T22:51:50.102Z,1.60
2022-10-01T22:54:29.716Z,2.07
2022-10-01T22:57:12.586Z,1.93
2022-10-01T23:00:09.358Z,2.30
2022-10-01T23:03:12.097Z,1.73
2022-10-01T23:05:59.458Z,2.00
2022-10-01T23:08:39.379Z,2.43
2022-10-01T23:11:12.664Z,2.63
2022-10-01T23:13:56.630Z,1.60
2022-10-01T23:16:36.024Z,2.70
2022-10-01T23:19:34.890Z,1.83
2022-10-01T23:22:01.746Z,2.00
2022-10-01T23:24:55.548Z,2.57
2022-10-01T23:27:55.752Z,2.40
2022-10-01T23:30:23.031Z,2.10
2022-10-01T23:32:52.888Z,2.57
2022-10-01T23:35:22.342Z,1.87
2022-10-01T23:38:28.034Z,3.67
2022-10-01T23:40:58.011Z,2.87
2022-10-01T23:43:48.445Z,2.17
2022-10-01T23:46:23.705Z,3.57
2022-10-01T23:49:15.581Z,2.20
2022-10-01T23:52:00.391Z,2.43
2022-10-01T23:54:40.018Z,3.70
2022-10-01T23:57:25.696Z,4.73
